Kezdőlap
METAR-TAF:

METAR-TAF

Repülőterek :

Sinop, Törökország

földrajzi szélesség: 42-00-57N, földrajzi hosszúság: 035-03-59E, magasság: 7 m

Jelenlegi meteorológiai megfigyelések

A jelentés 1 órával és 8 perccel ezelõtt készült, 05:50 UTC
Keleti szél 4 kt, kelet-északkeleti és délkeleti között változik
Hőmérséklet 11°C
Páratartalom 76%
Légköri nyomás 1028 hPa
Látótávolság 10 km, vagy több
Szórványos felhőzet 3000 lábon
Szakadozott felhőzet 10000 lábon

METAR: LTCM 240550Z 10004KT 070V140 9999 SCT030 BKN100 11/07 Q1028

Idő: 09:58 (06:58 UTC)

Előrejelzés

A jelentés 2 órával és 18 perccel ezelõtt készült, 04:40 UTC
Az előrejelzés 24-én 06 óra UTC és 24-én 15 óra UTC között érvényes
Keleti szél 6 kt
Látótávolság: 6000 m
Szórványos felhőzet 3000 lábon

TAF: LTCM 240440Z 2406/2415 10006KT 6000 SCT030

Meteorológiai megfigyelések és előrejelzések több, mint 4000 repülőtéren (METAR és TAF jelentéseket).

A térképen piros és sárga pontok jelzik az elérhető meteorológiai állomásokat.

Mozgassa az egeret a pont fölött, hogy megjelenjen az állomás neve.

Azután kattintson az időjárási megfigyelések és előrejelzések megtekintéséhez.

A térkép megváltoztatása: kattintson a fekete keresztel jelölt zöld gombra ráközelítéshez, a vonallal jelölt zöld gombra távolításhoz, vagy a zöld nyilakra a szomszédos térképek eléréséhez.


METAR-TAF: